AirNav   Pilot Hours Calculator
 
 634 users online  

TN47 Needham's Airport
Arlington, Tennessee, USA

GOING TO ARLINGTON?


FAA INFORMATION EFFECTIVE 07 NOVEMBER 2019

Location

FAA Identifier: TN47
Lat/Long: 35-17-20.3110N 089-44-28.2960W
35-17.338517N 089-44.471600W
35.2889753,-89.7411933
(estimated)
Elevation: 289 ft. / 88 m (estimated)
Variation: 02E (1985)
From city: 4 miles W of ARLINGTON, TN
Time zone: UTC -6 (UTC -5 during Daylight Saving Time)
Zip code: 38002

Airport Operations

Airport use: Private use. Permission required prior to landing
Control tower: no
ARTCC: MEMPHIS CENTER
FSS: JACKSON FLIGHT SERVICE STATION
Attendance: UNATNDD
Wind indicator: yes
Segmented circle: no

Airport Communications

WX AWOS-3 at NQA (8 nm NW): 118.925 (901-873-3630)
WX AWOS-A at 2M8 (9 nm W): 122.8 ((901) 873-0903)
WX AWOS-A at M01 (16 nm W): 122.7 ((901) 354-9296)
WX AWOS-3 at FYE (18 nm E): 119.875 (901-465-6367)
WX AWOS-3 at OLV (19 nm S): 119.925 (662-893-5906)
WX ASOS at MEM (19 nm SW): 127.75 (901-332-3679)
WX AWOS-3 at M04 (19 nm NE): 118.575 (901-476-1705)

Nearby radio navigation aids

VOR radial/distance  VOR name  Freq  Var
MEMr035/20.3MEMPHIS VORTAC117.5001E
HLIr336/33.4HOLLY SPRINGS VORTAC112.4003E
GQEr092/36.2GILMORE VOR/DME113.0004E

Airport Services

Runway Information

Runway 18/36

Dimensions: 2500 x 50 ft. / 762 x 15 m
Surface: turf
RUNWAY 18  RUNWAY 36
Traffic pattern: leftleft
Obstructions: trees, 1000 ft. from runwaytrees, 300 ft. from runway

Airport Ownership and Management from official FAA records

Ownership: Privately-owned
Owner: L. & M. NEEDHAM
9596 STEWART RD
ARLINGTON, TN 38002-9536
Phone 901-829-4928
Manager: L. & M. NEEDHAM
9596 STEWART RD
ARLINGTON, TN 38002-9536
Phone 901-829-4928

Airport Operational Statistics

Aircraft based on the field: 2
Single engine airplanes: 2
    

Additional Remarks

FOR CD CTC MEMPHIS APCH AT 901-842-8457.

Instrument Procedures

There are no published instrument procedures at TN47.

Some nearby airports with instrument procedures:

KNQA - Millington-Memphis Airport (8 nm NW)
2M8 - Charles W Baker Airport (9 nm W)
M01 - General Dewitt Spain Airport (16 nm W)
KFYE - Fayette County Airport (18 nm E)
KOLV - Olive Branch Airport (19 nm S)
KMEM - Memphis International Airport (19 nm SW)
M04 - Covington Municipal Airport (19 nm NE)
 
Loc | Ops | Rwys | IFR | FBO | Links
Com | Nav | Svcs | Stats | Notes
Area around TN47 (Needham's Airport)
 
Road maps at: MapQuest Bing Google
 
Aerial photo
No photo
 
Sectional chart

 
Airport distance calculator
Flying to Needham's Airport? Find the distance to fly.

From to TN47

Sunrise and sunset
Times for 18-Nov-2019
 Local
(UTC-6)
 Zulu
(UTC)
Morning civil twilight06:1112:11
Sunrise06:3812:38
Sunset16:5022:50
Evening civil twilight17:1823:18

Current date and time
Zulu (UTC)  19-Nov-2019 05:11:05
Local (UTC-6)  18-Nov-2019 23:11:05
 
METAR
KNQA 
7nm NW 
190450Z 15005KT 10SM OVC070 09/03 A2983
KFYE 
18nm E 
190455Z AUTO 19005KT 10SM OVC070 09/02 A2984 RMK A01
KMEM 
18nm SW 
190454Z 20011KT 7SM -RA OVC070 10/03 A2984 RMK AO2 RAB51 SLP104 P0000 T01000028 $
KOLV 
18nm S 
190455Z AUTO 18006KT 10SM OVC070 09/03 A2984 RMK A01
TAF
KMEM 
18nm SW 
190306Z 1903/2006 21005KT P6SM VCSH BKN070 BKN150 FM190500 21007KT P6SM VCSH BKN070 WS020/27035KT FM190900 23005KT P6SM FEW070 FM191700 28008KT P6SM SKC FM200000 00000KT P6SM SKC
NOTAMs
Click for the latest NOTAMs
NOTAMs are issued by the DoD/FAA and will open in a separate window not controlled by AirNav.

 

 
 

Would you like to see your business listed on this page?

 If your business provides an interesting product or service to pilots, flight crews, aircraft, or users of the Needham's Airport, you should consider listing it here.  To start the listing process, click on the button below
 
Add a business
 

Other Pages about Needham's Airport

Update a link
 
Copyright © AirNav, LLC. All rights reserved. Privacy Policy  Contact